Time;durP1;ratioP1;P1;durP2;ratioP2;P2;SDS_P1;SDS_P2;PMS_P1;PMS_P2;Temp;Humidity;BMP_temperature;BMP_pressure;BME280_temperature;BME280_humidity;BME280_pressure;Samples;Min_cycle;Max_cycle;Signal;HPM_P1;HPM_P2
2022/11/13 00:00:24;;;;;;;15.68;12.63;;;;;;;5.24;100.00;101909.44;685031;28;1056;-65
2022/11/13 00:01:16;;;;;;;15.07;12.25;;;;;;;5.25;100.00;101903.44;683479;28;4456;-65
2022/11/13 00:01:55;;;;;;;14.55;12.43;;;;;;;5.33;100.00;101901.09;685316;28;1187;-65
2022/11/13 00:02:34;;;;;;;14.02;11.85;;;;;;;5.39;100.00;101902.22;684728;28;1163;-65
2022/11/13 00:03:13;;;;;;;14.13;11.15;;;;;;;5.32;100.00;101908.00;686872;28;1281;-65
2022/11/13 00:03:52;;;;;;;15.05;11.70;;;;;;;5.29;100.00;101901.00;684877;28;4321;-65
2022/11/13 00:04:32;;;;;;;13.25;11.77;;;;;;;5.26;100.00;101902.59;686694;28;1153;-65
2022/11/13 00:05:11;;;;;;;12.90;11.02;;;;;;;5.25;100.00;101906.91;685652;28;1292;-66
2022/11/13 00:06:00;;;;;;;14.63;11.32;;;;;;;5.33;100.00;101907.19;684998;28;1266;-65
2022/11/13 00:06:39;;;;;;;13.88;11.20;;;;;;;5.41;100.00;101895.41;685934;28;1963;-64
2022/11/13 00:07:18;;;;;;;14.40;11.05;;;;;;;5.44;100.00;101904.97;684122;28;5054;-66
2022/11/13 00:07:57;;;;;;;13.95;11.65;;;;;;;5.38;100.00;101902.16;686122;28;1231;-65
2022/11/13 00:08:36;;;;;;;13.43;11.13;;;;;;;5.31;100.00;101908.84;685154;28;1089;-66
2022/11/13 00:09:15;;;;;;;14.18;11.05;;;;;;;5.28;100.00;101908.72;684836;28;1104;-64
2022/11/13 00:09:54;;;;;;;14.68;12.15;;;;;;;5.22;100.00;101908.47;685137;28;4331;-66
2022/11/13 00:10:33;;;;;;;15.32;12.48;;;;;;;5.15;100.00;101909.09;686019;28;1157;-65
2022/11/13 00:11:17;;;;;;;14.50;12.48;;;;;;;5.11;100.00;101908.97;686982;28;1246;-65
2022/11/13 00:11:56;;;;;;;15.30;12.27;;;;;;;5.11;100.00;101914.16;685922;28;1614;-68
2022/11/13 00:12:35;;;;;;;15.35;13.13;;;;;;;5.07;100.00;101914.88;686408;28;1199;-66
2022/11/13 00:13:14;;;;;;;13.90;12.32;;;;;;;5.11;100.00;101900.34;687278;28;4988;-66
2022/11/13 00:13:53;;;;;;;14.68;12.23;;;;;;;5.11;100.00;101902.94;686437;28;1207;-65
2022/11/13 00:14:32;;;;;;;14.82;12.25;;;;;;;5.10;100.00;101907.22;687798;28;1139;-64
2022/11/13 00:15:11;;;;;;;14.45;12.07;;;;;;;5.08;100.00;101901.09;685808;28;1362;-64
2022/11/13 00:16:06;;;;;;;15.68;11.82;;;;;;;5.11;100.00;101908.09;686323;28;4348;-66
2022/11/13 00:16:45;;;;;;;15.82;12.05;;;;;;;5.15;100.00;101903.91;687348;28;1141;-65
2022/11/13 00:17:24;;;;;;;14.48;11.93;;;;;;;5.13;100.00;101910.75;686606;28;2128;-65
2022/11/13 00:18:03;;;;;;;13.57;11.50;;;;;;;5.14;100.00;101910.81;685295;28;1156;-66
2022/11/13 00:18:42;;;;;;;15.60;12.27;;;;;;;5.11;100.00;101908.09;686564;28;1080;-66
2022/11/13 00:19:21;;;;;;;14.40;11.63;;;;;;;5.08;100.00;101908.88;685303;28;4976;-65
2022/11/13 00:20:00;;;;;;;14.25;11.60;;;;;;;5.09;100.00;101901.97;686014;28;2028;-65
2022/11/13 00:20:39;;;;;;;14.75;11.80;;;;;;;5.07;100.00;101906.22;684040;28;1320;-65
2022/11/13 00:21:21;;;;;;;15.70;12.13;;;;;;;5.02;100.00;101903.44;685713;28;1024;-65
2022/11/13 00:22:00;;;;;;;14.65;11.73;;;;;;;5.03;100.00;101902.63;683831;28;4694;-66
2022/11/13 00:22:39;;;;;;;12.73;11.32;;;;;;;5.06;100.00;101902.72;685095;28;2205;-66
2022/11/13 00:23:18;;;;;;;14.27;11.85;;;;;;;5.07;100.00;101909.69;685610;28;1354;-65
2022/11/13 00:23:57;;;;;;;13.85;11.40;;;;;;;5.03;100.00;101902.63;686094;28;1128;-65
2022/11/13 00:24:36;;;;;;;14.73;11.63;;;;;;;4.99;100.00;101905.91;684892;28;1222;-64
2022/11/13 00:25:15;;;;;;;13.68;11.25;;;;;;;5.00;100.00;101899.91;681814;28;4970;-65
2022/11/13 00:25:54;;;;;;;13.15;11.35;;;;;;;5.05;100.00;101894.91;684172;28;1352;-66
2022/11/13 00:26:33;;;;;;;13.55;10.88;;;;;;;5.15;100.00;101901.31;686203;28;1938;-66
2022/11/13 00:27:12;;;;;;;13.63;11.10;;;;;;;5.20;100.00;101904.97;688418;28;1300;-65
2022/11/13 00:27:51;;;;;;;13.48;11.30;;;;;;;5.17;100.00;101899.69;687846;28;4317;-65
2022/11/13 00:28:31;;;;;;;14.05;11.07;;;;;;;5.14;100.00;101902.13;688968;28;1172;-65
2022/11/13 00:29:10;;;;;;;13.93;11.48;;;;;;;5.07;100.00;101899.31;686226;28;1032;-65
2022/11/13 00:29:49;;;;;;;12.65;11.05;;;;;;;5.01;100.00;101899.09;686231;28;1194;-66
2022/11/13 00:30:28;;;;;;;15.25;11.23;;;;;;;4.97;100.00;101893.72;685397;28;1152;-64
2022/11/13 00:31:09;;;;;;;13.73;11.43;;;;;;;4.89;100.00;101889.16;685305;28;4381;-66
2022/11/13 00:31:48;;;;;;;13.65;11.13;;;;;;;4.89;100.00;101893.44;685681;28;1175;-65
2022/11/13 00:32:27;;;;;;;13.68;11.23;;;;;;;4.86;100.00;101894.22;686924;28;1021;-65
2022/11/13 00:33:06;;;;;;;12.75;10.82;;;;;;;4.90;100.00;101890.00;685046;28;1171;-65
2022/11/13 00:33:44;;;;;;;12.77;10.70;;;;;;;4.95;100.00;101885.91;686710;28;1175;-65
2022/11/13 00:34:24;;;;;;;13.13;10.82;;;;;;;4.98;100.00;101887.72;684714;28;5038;-65
2022/11/13 00:35:03;;;;;;;12.50;10.55;;;;;;;5.08;100.00;101889.81;685547;28;1037;-70
2022/11/13 00:35:42;;;;;;;13.40;10.88;;;;;;;5.08;100.00;101892.41;685452;28;1145;-65
2022/11/13 00:36:26;;;;;;;13.52;10.82;;;;;;;5.14;100.00;101895.25;684533;28;2273;-66
2022/11/13 00:37:05;;;;;;;14.18;10.88;;;;;;;5.07;100.00;101893.25;685578;28;4416;-65
2022/11/13 00:37:44;;;;;;;14.38;10.68;;;;;;;5.08;100.00;101890.72;685218;28;1310;-66
2022/11/13 00:38:23;;;;;;;12.25;10.68;;;;;;;5.00;100.00;101883.47;685243;28;942;-65
2022/11/13 00:39:03;;;;;;;13.18;11.10;;;;;;;5.08;100.00;101889.81;685093;28;1311;-65
2022/11/13 00:39:42;;;;;;;12.93;10.75;;;;;;;5.02;100.00;101889.59;684856;28;1187;-65
2022/11/13 00:40:21;;;;;;;13.25;10.95;;;;;;;5.06;100.00;101886.31;685356;28;5150;-66
2022/11/13 00:41:01;;;;;;;14.93;11.02;;;;;;;5.02;100.00;101880.13;684988;28;1175;-65
2022/11/13 00:41:40;;;;;;;12.30;10.68;;;;;;;5.00;100.00;101886.06;682432;28;1128;-65
2022/11/13 00:42:19;;;;;;;13.50;11.00;;;;;;;5.01;100.00;101886.16;682383;28;1033;-65
2022/11/13 00:42:58;;;;;;;14.20;11.18;;;;;;;5.00;100.00;101886.97;685503;28;4561;-65
2022/11/13 00:43:37;;;;;;;13.35;11.05;;;;;;;4.97;100.00;101884.25;685985;28;1087;-66
2022/11/13 00:44:16;;;;;;;14.43;11.43;;;;;;;4.95;100.00;101880.72;684492;28;2115;-66
2022/11/13 00:44:58;;;;;;;13.02;10.77;;;;;;;4.90;100.00;101883.16;685801;28;1132;-65
2022/11/13 00:45:37;;;;;;;13.35;11.55;;;;;;;4.87;100.00;101884.72;686077;28;1226;-65
2022/11/13 00:46:18;;;;;;;14.32;12.15;;;;;;;4.87;100.00;101880.41;684928;28;5842;-65
2022/11/13 00:46:57;;;;;;;13.88;11.32;;;;;;;4.89;100.00;101883.09;682885;28;2361;-65
2022/11/13 00:47:36;;;;;;;14.90;11.63;;;;;;;4.91;100.00;101889.19;682802;28;1203;-65
2022/11/13 00:48:15;;;;;;;13.68;11.45;;;;;;;4.87;100.00;101882.13;685152;28;929;-66
2022/11/13 00:48:54;;;;;;;13.90;11.30;;;;;;;4.88;100.00;101884.78;686992;28;4725;-65
2022/11/13 00:49:33;;;;;;;13.10;10.88;;;;;;;4.91;100.00;101882.28;686078;28;2109;-65
2022/11/13 00:50:12;;;;;;;13.70;11.57;;;;;;;4.84;100.00;101882.03;687955;28;992;-65
2022/11/13 00:50:52;;;;;;;13.35;11.13;;;;;;;4.77;100.00;101873.13;685511;28;1156;-66
2022/11/13 00:51:31;;;;;;;12.80;10.73;;;;;;;4.80;100.00;101877.53;685067;28;1199;-66
2022/11/13 00:52:09;;;;;;;13.65;11.40;;;;;;;4.82;100.00;101876.78;684285;28;5232;-65
2022/11/13 00:52:48;;;;;;;13.60;10.95;;;;;;;4.83;100.00;101878.56;685315;28;1354;-64
2022/11/13 00:53:27;;;;;;;13.82;10.88;;;;;;;4.84;100.00;101876.84;685703;28;1025;-65
2022/11/13 00:54:06;;;;;;;13.57;11.13;;;;;;;4.94;100.00;101879.84;685340;28;1270;-66
2022/11/13 00:54:45;;;;;;;13.38;11.15;;;;;;;4.91;100.00;101884.00;685216;28;2147;-65
2022/11/13 00:55:24;;;;;;;13.68;10.95;;;;;;;4.84;100.00;101872.53;684805;28;4993;-64
2022/11/13 00:56:04;;;;;;;14.20;11.07;;;;;;;4.83;100.00;101872.47;685528;28;1271;-65
2022/11/13 00:56:43;;;;;;;13.23;11.05;;;;;;;4.87;100.00;101876.94;684950;28;1120;-65
2022/11/13 00:57:22;;;;;;;12.35;10.90;;;;;;;4.90;100.00;101872.78;685681;28;2219;-65
2022/11/13 00:58:01;;;;;;;12.85;10.98;;;;;;;4.88;100.00;101868.34;684621;28;4481;-65
2022/11/13 00:58:40;;;;;;;12.27;10.60;;;;;;;4.89;100.00;101872.72;683462;28;1216;-66
2022/11/13 00:59:19;;;;;;;12.90;10.80;;;;;;;4.87;100.00;101872.63;682987;28;1060;-65
2022/11/13 00:59:58;;;;;;;14.18;11.15;;;;;;;4.88;100.00;101865.78;681676;28;2361;-66
2022/11/13 01:00:38;;;;;;;13.70;10.52;;;;;;;4.87;100.00;101864.00;685717;28;1163;-66
2022/11/13 01:01:18;;;;;;;12.77;10.68;;;;;;;4.82;100.00;101873.28;684609;28;4973;-64
2022/11/13 01:01:58;;;;;;;12.70;10.50;;;;;;;4.83;100.00;101862.09;685479;28;1132;-65
2022/11/13 01:02:37;;;;;;;13.02;10.50;;;;;;;4.82;100.00;101862.94;684629;28;1220;-66
2022/11/13 01:03:16;;;;;;;12.40;10.57;;;;;;;4.81;100.00;101864.66;684918;28;1228;-65
2022/11/13 01:03:56;;;;;;;12.23;10.13;;;;;;;4.86;100.00;101862.22;685305;28;4314;-65
2022/11/13 01:04:35;;;;;;;10.82;9.07;;;;;;;4.89;100.00;101859.78;685671;28;1152;-65
2022/11/13 01:05:14;;;;;;;11.80;9.07;;;;;;;4.88;100.00;101860.59;685012;28;1032;-64
2022/11/13 01:05:53;;;;;;;11.70;9.45;;;;;;;4.88;100.00;101861.44;685310;28;1234;-66
2022/11/13 01:06:32;;;;;;;12.98;9.73;;;;;;;4.89;100.00;101863.22;684662;28;1164;-66
2022/11/13 01:07:11;;;;;;;10.38;8.65;;;;;;;4.92;100.00;101858.16;684880;28;5192;-65
2022/11/13 01:07:50;;;;;;;10.68;9.10;;;;;;;4.93;100.00;101865.09;685221;28;1097;-66
2022/11/13 01:08:29;;;;;;;11.52;8.90;;;;;;;4.89;100.00;101864.94;684954;28;1158;-66
2022/11/13 01:09:08;;;;;;;11.13;9.25;;;;;;;4.83;100.00;101865.59;687558;28;1258;-65
2022/11/13 01:09:50;;;;;;;10.65;8.50;;;;;;;4.83;100.00;101862.09;688109;28;1096;-65
2022/11/13 01:10:30;;;;;;;11.50;9.02;;;;;;;4.80;100.00;101868.06;686658;28;5033;-65
2022/11/13 01:11:12;;;;;;;11.43;7.90;;;;;;;4.77;100.00;101871.41;684833;28;1083;-65
2022/11/13 01:11:51;;;;;;;10.93;8.35;;;;;;;4.66;100.00;101862.34;686205;28;1072;-66
2022/11/13 01:12:30;;;;;;;10.75;7.60;;;;;;;4.57;100.00;101862.00;686085;28;1104;-65
2022/11/13 01:13:10;;;;;;;11.40;7.80;;;;;;;4.56;100.00;101861.09;685020;28;5203;-65
2022/11/13 01:13:50;;;;;;;11.05;8.13;;;;;;;4.62;100.00;101862.19;685284;28;1288;-64
2022/11/13 01:14:29;;;;;;;10.15;7.53;;;;;;;4.59;100.00;101858.63;684692;28;1091;-66
2022/11/13 01:15:08;;;;;;;9.93;7.78;;;;;;;4.59;100.00;101861.22;682342;28;1346;-64
2022/11/13 01:15:47;;;;;;;11.30;7.65;;;;;;;4.57;100.00;101862.00;681645;28;1882;-65
2022/11/13 01:16:27;;;;;;;9.98;7.40;;;;;;;4.66;100.00;101864.06;683603;28;5166;-65
2022/11/13 01:17:06;;;;;;;9.45;7.10;;;;;;;4.72;100.00;101862.59;683905;28;1140;-65
2022/11/13 01:17:45;;;;;;;9.05;7.18;;;;;;;4.78;100.00;101873.19;685338;28;1116;-65
2022/11/13 01:18:24;;;;;;;9.75;7.10;;;;;;;4.79;100.00;101866.31;684846;28;1041;-66
2022/11/13 01:19:03;;;;;;;9.35;7.30;;;;;;;4.83;100.00;101869.88;684476;28;4735;-64
2022/11/13 01:19:42;;;;;;;9.18;7.10;;;;;;;4.86;100.00;101867.41;685571;28;1009;-66
2022/11/13 01:20:23;;;;;;;10.25;7.68;;;;;;;4.78;100.00;101870.59;685255;28;1024;-65
2022/11/13 01:21:08;;;;;;;10.23;7.53;;;;;;;4.71;100.00;101862.53;684801;28;1159;-65
2022/11/13 01:21:47;;;;;;;9.55;7.60;;;;;;;4.66;100.00;101867.53;688459;28;1195;-65
2022/11/13 01:22:26;;;;;;;10.35;7.95;;;;;;;4.64;100.00;101873.47;687102;28;6027;-66
2022/11/13 01:23:05;;;;;;;10.60;8.75;;;;;;;4.65;100.00;101865.75;685337;28;1100;-65
2022/11/13 01:23:47;;;;;;;10.15;8.48;;;;;;;4.67;100.00;101864.13;682359;28;1302;-66
2022/11/13 01:24:26;;;;;;;10.63;8.40;;;;;;;4.60;100.00;101865.59;682148;28;1052;-65
2022/11/13 01:25:06;;;;;;;10.57;8.10;;;;;;;4.62;100.00;101869.94;684406;28;4582;-66
2022/11/13 01:25:45;;;;;;;9.68;8.00;;;;;;;4.63;100.00;101863.94;686439;28;1528;-65
2022/11/13 01:26:29;;;;;;;10.20;7.97;;;;;;;4.70;100.00;101872.00;685057;28;977;-65
2022/11/13 01:27:08;;;;;;;10.30;8.25;;;;;;;4.71;100.00;101859.94;685378;28;1235;-65
2022/11/13 01:27:47;;;;;;;11.75;9.48;;;;;;;4.75;100.00;101867.03;685472;28;1255;-65
2022/11/13 01:28:26;;;;;;;15.80;12.00;;;;;;;4.75;100.00;101867.88;684766;28;4964;-65
2022/11/13 01:29:06;;;;;;;16.85;12.13;;;;;;;4.77;100.00;101861.03;685686;28;1207;-64
2022/11/13 01:29:44;;;;;;;16.63;12.48;;;;;;;4.73;100.00;101866.06;684644;28;1170;-67
2022/11/13 01:30:23;;;;;;;15.75;11.70;;;;;;;4.72;100.00;101862.59;684966;28;1127;-65
2022/11/13 01:31:06;;;;;;;15.02;11.85;;;;;;;4.75;100.00;101854.06;684409;28;4461;-65
2022/11/13 01:31:46;;;;;;;16.42;11.50;;;;;;;4.73;100.00;101864.34;684822;28;1306;-65
2022/11/13 01:32:25;;;;;;;14.88;11.27;;;;;;;4.69;100.00;101865.03;683252;28;1077;-66
2022/11/13 01:33:04;;;;;;;14.30;10.95;;;;;;;4.66;100.00;101861.47;685063;28;1402;-65
2022/11/13 01:33:44;;;;;;;12.35;9.57;;;;;;;4.65;100.00;101864.88;686203;28;1064;-65
2022/11/13 01:34:23;;;;;;;12.15;10.05;;;;;;;4.67;100.00;101871.88;684449;28;5046;-65
2022/11/13 01:35:02;;;;;;;12.55;10.18;;;;;;;4.71;100.00;101866.00;684293;28;1216;-65
2022/11/13 01:35:41;;;;;;;13.68;10.20;;;;;;;4.65;100.00;101867.47;684166;28;1196;-64
2022/11/13 01:36:23;;;;;;;12.63;10.20;;;;;;;4.64;100.00;101863.09;685023;28;1100;-66
2022/11/13 01:37:03;;;;;;;14.68;10.90;;;;;;;4.62;100.00;101863.03;684135;28;4293;-66
2022/11/13 01:37:41;;;;;;;15.77;11.48;;;;;;;4.66;100.00;101859.75;683845;28;1124;-65
2022/11/13 01:38:20;;;;;;;14.52;11.23;;;;;;;4.76;100.00;101859.31;685684;28;1012;-65
2022/11/13 01:38:59;;;;;;;14.45;11.00;;;;;;;4.76;100.00;101864.47;685082;28;4991;-65
2022/11/13 01:39:39;;;;;;;13.75;10.82;;;;;;;4.71;100.00;101862.53;684823;28;1091;-65
2022/11/13 01:40:18;;;;;;;16.00;11.10;;;;;;;4.68;100.00;101859.81;684410;28;5015;-65
2022/11/13 01:40:58;;;;;;;13.82;10.45;;;;;;;4.63;100.00;101864.81;684986;28;1405;-66
2022/11/13 01:41:37;;;;;;;14.30;10.75;;;;;;;4.63;100.00;101864.81;685766;28;1068;-65
2022/11/13 01:42:16;;;;;;;13.20;9.95;;;;;;;4.59;100.00;101863.81;684399;28;1135;-65
2022/11/13 01:42:55;;;;;;;13.25;10.25;;;;;;;4.52;100.00;101855.75;683351;28;4572;-65
2022/11/13 01:43:36;;;;;;;13.95;11.10;;;;;;;4.50;100.00;101867.75;685081;28;1183;-64
2022/11/13 01:44:17;;;;;;;14.00;10.65;;;;;;;4.53;100.00;101861.00;684243;28;1041;-64
2022/11/13 01:44:59;;;;;;;15.77;11.35;;;;;;;4.53;100.00;101861.00;685067;28;1084;-65
2022/11/13 01:46:19;;;;;;;13.98;10.80;;;;;;;4.47;100.00;101857.28;683805;28;1103;-65
2022/11/13 01:46:58;;;;;;;11.93;9.90;;;;;;;4.36;100.00;101855.16;684168;28;5182;-65
2022/11/13 01:47:37;;;;;;;12.43;9.43;;;;;;;4.37;100.00;101856.03;684894;28;1064;-65
2022/11/13 01:48:16;;;;;;;11.75;9.15;;;;;;;4.38;100.00;101853.50;683783;28;2232;-66
2022/11/13 01:49:09;;;;;;;11.10;8.63;;;;;;;4.40;100.00;101854.47;685383;28;1076;-66
2022/11/13 01:49:52;;;;;;;12.40;9.43;;;;;;;4.47;100.00;101850.38;685452;28;1298;-65
2022/11/13 01:50:31;;;;;;;12.07;8.63;;;;;;;4.48;100.00;101854.75;685699;28;1156;-64
2022/11/13 01:51:17;;;;;;;10.68;8.57;;;;;;;4.53;100.00;101847.16;684843;28;1464;-65
2022/11/13 01:52:00;;;;;;;11.80;8.60;;;;;;;4.52;100.00;101843.69;683983;28;4466;-66
2022/11/13 01:52:41;;;;;;;10.25;8.35;;;;;;;4.42;100.00;101849.34;685447;28;1113;-65
2022/11/13 01:53:20;;;;;;;11.27;8.23;;;;;;;4.35;100.00;101853.38;684275;28;1993;-65
2022/11/13 01:54:03;;;;;;;11.05;8.10;;;;;;;4.35;100.00;101842.16;684979;28;1083;-64
2022/11/13 01:54:49;;;;;;;10.55;8.18;;;;;;;4.36;100.00;101839.63;685343;28;1009;-65
2022/11/13 01:55:28;;;;;;;9.63;7.97;;;;;;;4.33;100.00;101836.88;684640;28;5786;-68
2022/11/13 01:56:08;;;;;;;9.88;7.88;;;;;;;4.34;100.00;101838.66;684691;28;2188;-66
2022/11/13 01:56:47;;;;;;;9.77;8.10;;;;;;;4.31;100.00;101835.97;685856;28;974;-66
2022/11/13 01:57:27;;;;;;;9.18;7.95;;;;;;;4.35;100.00;101837.84;685735;28;1100;-65
2022/11/13 01:58:09;;;;;;;10.07;7.80;;;;;;;4.40;100.00;101836.34;685546;28;4638;-65
2022/11/13 01:58:54;;;;;;;9.85;8.13;;;;;;;4.43;100.00;101841.63;684770;28;2164;-65
2022/11/13 01:59:49;;;;;;;9.30;7.70;;;;;;;4.41;100.00;101837.19;685025;28;1041;-66
2022/11/13 02:00:28;;;;;;;10.77;8.02;;;;;;;4.26;100.00;101838.38;684797;28;1123;-65
2022/11/13 02:01:07;;;;;;;10.76;8.46;;;;;;;4.24;100.00;101837.41;682216;28;4310;-65
2022/11/13 02:01:46;;;;;;;9.98;7.90;;;;;;;4.34;100.00;101833.47;682127;28;1231;-66
2022/11/13 02:02:25;;;;;;;9.52;8.07;;;;;;;4.31;100.00;101835.97;681939;28;1092;-64
2022/11/13 02:03:04;;;;;;;10.05;8.13;;;;;;;4.28;100.00;101829.75;682640;28;1169;-66
2022/11/13 02:03:43;;;;;;;9.80;7.65;;;;;;;4.37;100.00;101830.13;682250;28;1176;-65
2022/11/13 02:04:23;;;;;;;9.38;7.60;;;;;;;4.32;100.00;101832.56;684239;28;5079;-64
2022/11/13 02:05:06;;;;;;;10.18;7.88;;;;;;;4.34;100.00;101832.63;685981;28;1124;-65
2022/11/13 02:05:45;;;;;;;9.77;7.85;;;;;;;4.32;100.00;101829.97;685268;28;1123;-65
2022/11/13 02:06:29;;;;;;;9.77;8.32;;;;;;;4.32;100.00;101822.19;684898;28;1068;-66
2022/11/13 02:07:11;;;;;;;11.52;8.40;;;;;;;4.31;100.00;101822.16;684183;28;5059;-65
2022/11/13 02:07:51;;;;;;;9.98;8.15;;;;;;;4.33;100.00;101826.53;685185;28;1060;-65
2022/11/13 02:08:30;;;;;;;10.18;7.90;;;;;;;4.36;100.00;101826.69;685099;28;1067;-65
2022/11/13 02:09:10;;;;;;;10.30;7.50;;;;;;;4.38;100.00;101822.44;687248;28;1243;-65
2022/11/13 02:09:53;;;;;;;9.80;7.75;;;;;;;4.47;100.00;101824.47;685170;28;4572;-64
2022/11/13 02:10:32;;;;;;;9.30;7.50;;;;;;;4.38;100.00;101822.44;682556;28;1108;-64
2022/11/13 02:11:12;;;;;;;11.77;8.52;;;;;;;4.26;100.00;101828.03;681773;28;1072;-64
2022/11/13 02:11:52;;;;;;;10.30;7.97;;;;;;;4.17;100.00;101816.41;681455;28;1072;-65
2022/11/13 02:12:39;;;;;;;9.60;7.90;;;;;;;4.16;100.00;101814.66;681952;28;3604;-65
2022/11/13 02:13:20;;;;;;;10.18;8.38;;;;;;;4.12;100.00;101818.81;685256;28;4977;-65
2022/11/13 02:13:59;;;;;;;9.88;8.10;;;;;;;4.12;100.00;101817.94;688653;28;1024;-65
2022/11/13 02:14:51;;;;;;;10.27;7.80;;;;;;;4.19;100.00;101817.34;687927;28;2178;-65
2022/11/13 02:15:33;;;;;;;9.60;8.00;;;;;;;4.24;100.00;101818.41;686373;28;1039;-65
2022/11/13 02:16:12;;;;;;;9.65;7.88;;;;;;;4.17;100.00;101817.28;684551;28;5017;-65
2022/11/13 02:16:57;;;;;;;9.63;7.57;;;;;;;4.21;100.00;101814.00;685443;28;1230;-65
2022/11/13 02:17:51;;;;;;;9.63;7.63;;;;;;;4.24;100.00;101816.69;685204;28;2348;-66
2022/11/13 02:18:32;;;;;;;10.27;8.23;;;;;;;4.19;100.00;101814.75;685069;28;1104;-65
2022/11/13 02:19:24;;;;;;;9.60;7.40;;;;;;;4.26;100.00;101816.75;684107;28;5082;-64
2022/11/13 02:20:04;;;;;;;9.43;7.55;;;;;;;4.22;100.00;101812.28;683841;28;2033;-65
2022/11/13 02:20:55;;;;;;;9.88;7.22;;;;;;;4.19;100.00;101813.03;685212;28;1240;-65
2022/11/13 02:21:40;;;;;;;8.90;7.30;;;;;;;4.17;100.00;101800.88;682946;28;1167;-65
2022/11/13 02:22:43;;;;;;;9.75;7.38;;;;;;;3.97;100.00;101807.84;684394;28;5133;-64
2022/11/13 02:23:41;;;;;;;9.43;7.05;;;;;;;3.92;100.00;101799.91;687689;28;1064;-65
2022/11/13 02:24:24;;;;;;;8.52;6.97;;;;;;;3.99;100.00;101811.34;686962;28;1068;-64
2022/11/13 02:25:05;;;;;;;9.95;6.90;;;;;;;3.97;100.00;101808.72;685549;28;4643;-65
2022/11/13 02:25:49;;;;;;;8.43;6.45;;;;;;;3.96;100.00;101809.56;685791;28;1120;-65
2022/11/13 02:26:29;;;;;;;10.43;6.78;;;;;;;3.95;100.00;101812.94;684990;28;961;-64
2022/11/13 02:27:37;;;;;;;7.90;6.50;;;;;;;3.96;100.00;101811.25;685355;28;1195;-66
2022/11/13 02:28:16;;;;;;;7.57;6.10;;;;;;;4.01;100.00;101809.72;683842;28;5213;-65
2022/11/13 02:28:55;;;;;;;8.82;6.45;;;;;;;4.09;100.00;101813.50;684951;28;1167;-64
2022/11/13 02:29:34;;;;;;;7.68;6.10;;;;;;;4.09;100.00;101814.38;684500;28;1239;-66
2022/11/13 02:30:26;;;;;;;7.82;6.30;;;;;;;4.07;100.00;101805.69;685107;28;1186;-65
2022/11/13 02:31:11;;;;;;;8.13;5.78;;;;;;;4.05;100.00;101809.91;684312;28;4424;-64
2022/11/13 02:31:50;;;;;;;7.80;5.97;;;;;;;4.03;100.00;101814.16;684690;28;1194;-64
2022/11/13 02:32:28;;;;;;;8.08;5.72;;;;;;;3.99;100.00;101803.59;685487;28;1283;-66
2022/11/13 02:33:36;;;;;;;8.30;5.97;;;;;;;3.97;100.00;101802.66;684603;28;1215;-65
2022/11/13 02:34:15;;;;;;;7.22;6.07;;;;;;;3.97;100.00;101798.34;684395;28;5069;-65
2022/11/13 02:34:54;;;;;;;7.60;6.03;;;;;;;3.91;100.00;101798.13;685480;28;1044;-65
2022/11/13 02:35:36;;;;;;;8.20;5.82;;;;;;;3.90;100.00;101807.59;685571;28;1080;-65
2022/11/13 02:36:17;;;;;;;7.22;5.90;;;;;;;3.88;100.00;101803.19;684239;28;2055;-65
2022/11/13 02:36:56;;;;;;;8.07;6.00;;;;;;;3.87;100.00;101798.81;684504;28;4476;-65
2022/11/13 02:37:35;;;;;;;9.50;6.15;;;;;;;3.93;100.00;101796.47;685199;28;1144;-65
2022/11/13 02:38:14;;;;;;;9.10;6.10;;;;;;;4.05;100.00;101796.97;684761;28;1174;-64
2022/11/13 02:38:56;;;;;;;7.88;5.72;;;;;;;4.13;100.00;101801.59;686149;28;5070;-65
2022/11/13 02:39:35;;;;;;;8.10;5.80;;;;;;;4.07;100.00;101797.03;687519;28;1080;-65
2022/11/13 02:40:15;;;;;;;7.75;5.80;;;;;;;4.05;100.00;101791.78;686548;28;6071;-66
2022/11/13 02:40:54;;;;;;;9.68;6.00;;;;;;;4.09;100.00;101796.25;685003;28;1076;-65
2022/11/13 02:41:33;;;;;;;9.23;5.80;;;;;;;4.00;100.00;101797.59;684793;28;2103;-65
2022/11/13 02:42:12;;;;;;;7.70;5.60;;;;;;;4.11;100.00;101795.44;684613;28;1169;-64
2022/11/13 02:42:50;;;;;;;8.32;5.68;;;;;;;4.22;100.00;101796.75;684050;28;4323;-65
2022/11/13 02:43:30;;;;;;;8.10;6.10;;;;;;;4.28;100.00;101794.44;685581;28;1068;-66
2022/11/13 02:44:09;;;;;;;9.18;6.82;;;;;;;4.21;100.00;101794.97;683873;28;2102;-65
2022/11/13 02:44:48;;;;;;;8.00;6.72;;;;;;;4.07;100.00;101787.56;685675;28;1165;-64
2022/11/13 02:45:26;;;;;;;8.38;6.60;;;;;;;4.05;100.00;101790.91;686129;28;1239;-65
2022/11/13 02:46:05;;;;;;;9.85;7.13;;;;;;;4.00;100.00;101793.34;684202;28;4376;-64
2022/11/13 02:46:45;;;;;;;9.82;6.93;;;;;;;4.02;100.00;101791.66;684780;28;2163;-65
2022/11/13 02:47:24;;;;;;;8.40;6.80;;;;;;;4.00;100.00;101795.91;684916;28;1025;-64
2022/11/13 02:48:04;;;;;;;9.13;6.90;;;;;;;4.05;100.00;101796.09;685069;28;1202;-64
2022/11/13 02:48:43;;;;;;;9.65;7.00;;;;;;;4.05;100.00;101801.28;683988;28;1171;-65
2022/11/13 02:49:22;;;;;;;10.20;8.05;;;;;;;3.97;100.00;101794.91;682846;28;5135;-66
2022/11/13 02:50:03;;;;;;;9.20;7.75;;;;;;;3.94;100.00;101793.06;685122;28;1108;-64
2022/11/13 02:50:42;;;;;;;9.75;7.70;;;;;;;3.96;100.00;101790.53;684534;28;1108;-64
2022/11/13 02:51:21;;;;;;;9.70;7.50;;;;;;;4.04;100.00;101795.22;684389;28;1084;-65
2022/11/13 02:52:00;;;;;;;9.63;7.63;;;;;;;4.04;100.00;101796.91;683864;28;4457;-65
2022/11/13 02:52:39;;;;;;;10.15;8.07;;;;;;;4.02;100.00;101799.44;684644;28;1177;-65
2022/11/13 02:53:17;;;;;;;9.66;7.86;;;;;;;4.14;100.00;101805.91;684274;28;938;-65
2022/11/13 02:53:56;;;;;;;10.35;8.52;;;;;;;4.18;100.00;101797.44;685455;28;1068;-64
2022/11/13 02:54:35;;;;;;;9.98;8.10;;;;;;;4.18;100.00;101797.44;685040;28;1059;-65
2022/11/13 02:55:14;;;;;;;9.95;7.72;;;;;;;4.15;100.00;101792.16;683933;28;5031;-64
2022/11/13 02:55:53;;;;;;;10.15;8.05;;;;;;;4.14;100.00;101791.28;684797;28;1119;-64
2022/11/13 02:56:32;;;;;;;10.10;8.02;;;;;;;4.15;100.00;101792.16;685434;28;1047;-65
2022/11/13 02:57:11;;;;;;;9.07;7.82;;;;;;;4.09;100.00;101788.50;684735;28;1095;-65
2022/11/13 02:57:50;;;;;;;10.57;8.00;;;;;;;4.07;100.00;101790.16;684734;28;4969;-64
2022/11/13 02:58:29;;;;;;;9.82;7.88;;;;;;;4.03;100.00;101788.28;685286;28;1119;-65
2022/11/13 02:59:08;;;;;;;9.80;7.60;;;;;;;4.01;100.00;101792.50;685136;28;1238;-64
2022/11/13 02:59:47;;;;;;;9.52;7.95;;;;;;;3.94;100.00;101782.72;684853;28;1408;-64
2022/11/13 03:00:26;;;;;;;10.40;7.90;;;;;;;3.91;100.00;101783.47;684868;28;1028;-64
2022/11/13 03:01:06;;;;;;;10.98;7.70;;;;;;;3.84;100.00;101785.75;683839;28;4402;-65
2022/11/13 03:01:46;;;;;;;9.70;7.85;;;;;;;3.80;100.00;101789.06;685795;28;1214;-64
2022/11/13 03:02:24;;;;;;;11.35;8.18;;;;;;;3.74;100.00;101785.38;684907;28;1064;-65
2022/11/13 03:03:03;;;;;;;9.98;7.70;;;;;;;3.81;100.00;101786.53;684781;28;1187;-64
2022/11/13 03:03:42;;;;;;;10.25;7.93;;;;;;;3.76;100.00;101782.84;685065;28;1160;-65
2022/11/13 03:04:22;;;;;;;9.82;7.60;;;;;;;3.63;100.00;101784.06;684613;28;5210;-65
2022/11/13 03:05:01;;;;;;;9.27;8.13;;;;;;;3.67;100.00;101783.38;685209;28;1068;-65
2022/11/13 03:05:40;;;;;;;10.15;7.72;;;;;;;3.83;100.00;101786.59;685110;28;1037;-65
2022/11/13 03:06:20;;;;;;;10.98;7.93;;;;;;;3.81;100.00;101788.19;684395;28;1089;-65
2022/11/13 03:06:59;;;;;;;9.88;8.05;;;;;;;3.71;100.00;101784.34;683661;28;4596;-65
2022/11/13 03:07:39;;;;;;;10.55;8.10;;;;;;;3.70;100.00;101777.44;684873;28;1032;-66
2022/11/13 03:08:19;;;;;;;9.30;7.80;;;;;;;3.80;100.00;101782.16;684653;28;1128;-66
2022/11/13 03:08:57;;;;;;;9.50;7.97;;;;;;;3.83;100.00;101781.41;684643;28;3620;-64
2022/11/13 03:09:37;;;;;;;10.38;8.10;;;;;;;3.77;100.00;101783.72;685305;28;1029;-65
2022/11/13 03:10:16;;;;;;;10.57;7.97;;;;;;;3.73;100.00;101783.59;684365;28;5045;-65
2022/11/13 03:10:55;;;;;;;10.82;8.15;;;;;;;3.82;100.00;101784.81;684241;28;2155;-65